Cremona, Canada
Current Conditions -  °F | °C
As of 1:00 PM on Friday 24 Oct 2014 (Local Time) from CYBW Reporting Station
Clear Clear  
Wind Chill: 50°   Ceiling: Unl
Heat Index: 50°   Visibility: 9mi
Dew Point: 16°   Wind: 17mph
Humidity: 26%   Direction: 280°W
Pressure: 29.91"   Gusts: 30mph
Location:  51.55°N, 114.47°W
Report Text: CYBW 241900Z AUTO 28015G26KT 9SM CLR 10/M09 A2991 RMK SLP152 DENSITY ALT 4300FT
Loading
Personal Weather Stations






























Interactive Weather Map
Tropical Storm Tracking
New forecast layout! Learn more

10-Day Weather Forecast

Advertisements
Track Severe Weather on mobile